sensor_id;sensor_type;location;lat;lon;timestamp;temperature;humidity
18823;DHT22;9540;51.550;7.980;2022-08-03T00:02:12;20.50;99.90
18823;DHT22;9540;51.550;7.980;2022-08-03T00:04:39;20.60;99.90
18823;DHT22;9540;51.550;7.980;2022-08-03T00:07:06;20.50;99.90
18823;DHT22;9540;51.550;7.980;2022-08-03T00:09:33;20.50;99.90
18823;DHT22;9540;51.550;7.980;2022-08-03T00:12:00;20.50;99.90
18823;DHT22;9540;51.550;7.980;2022-08-03T00:14:27;20.50;99.90
18823;DHT22;9540;51.550;7.980;2022-08-03T00:16:54;20.40;99.90
18823;DHT22;9540;51.550;7.980;2022-08-03T00:19:22;20.50;99.90
18823;DHT22;9540;51.550;7.980;2022-08-03T00:21:49;20.40;99.90
18823;DHT22;9540;51.550;7.980;2022-08-03T00:24:16;20.40;99.90
18823;DHT22;9540;51.550;7.980;2022-08-03T00:26:43;20.40;99.90
18823;DHT22;9540;51.550;7.980;2022-08-03T00:29:10;20.40;99.90
18823;DHT22;9540;51.550;7.980;2022-08-03T00:31:37;20.30;99.90
18823;DHT22;9540;51.550;7.980;2022-08-03T00:34:05;20.30;99.90
18823;DHT22;9540;51.550;7.980;2022-08-03T00:36:33;20.30;99.90
18823;DHT22;9540;51.550;7.980;2022-08-03T00:39:00;20.20;99.90
18823;DHT22;9540;51.550;7.980;2022-08-03T00:41:27;20.30;99.90
18823;DHT22;9540;51.550;7.980;2022-08-03T00:43:54;20.20;99.90
18823;DHT22;9540;51.550;7.980;2022-08-03T00:46:21;20.20;99.90
18823;DHT22;9540;51.550;7.980;2022-08-03T00:48:48;20.20;99.90
18823;DHT22;9540;51.550;7.980;2022-08-03T00:51:15;20.10;99.90
18823;DHT22;9540;51.550;7.980;2022-08-03T00:53:44;20.10;99.90
18823;DHT22;9540;51.550;7.980;2022-08-03T00:56:12;20.10;99.90
18823;DHT22;9540;51.550;7.980;2022-08-03T00:58:40;20.10;99.90
18823;DHT22;9540;51.550;7.980;2022-08-03T01:01:07;20.10;99.90
18823;DHT22;9540;51.550;7.980;2022-08-03T01:03:34;20.10;99.90
18823;DHT22;9540;51.550;7.980;2022-08-03T01:06:10;20.10;99.90
18823;DHT22;9540;51.550;7.980;2022-08-03T01:08:45;20.00;99.90
18823;DHT22;9540;51.550;7.980;2022-08-03T01:11:18;20.00;99.90
18823;DHT22;9540;51.550;7.980;2022-08-03T01:13:52;20.00;99.90
18823;DHT22;9540;51.550;7.980;2022-08-03T01:16:27;19.90;99.90
18823;DHT22;9540;51.550;7.980;2022-08-03T01:18:59;19.90;99.90
18823;DHT22;9540;51.550;7.980;2022-08-03T01:21:31;19.90;99.90
18823;DHT22;9540;51.550;7.980;2022-08-03T01:24:10;19.90;99.90
18823;DHT22;9540;51.550;7.980;2022-08-03T01:26:58;19.90;99.90
18823;DHT22;9540;51.550;7.980;2022-08-03T01:29:51;19.90;99.90
18823;DHT22;9540;51.550;7.980;2022-08-03T01:32:27;19.90;99.90
18823;DHT22;9540;51.550;7.980;2022-08-03T01:35:01;19.90;99.90
18823;DHT22;9540;51.550;7.980;2022-08-03T01:37:34;19.80;99.90
18823;DHT22;9540;51.550;7.980;2022-08-03T01:40:03;19.80;99.90
18823;DHT22;9540;51.550;7.980;2022-08-03T01:42:31;19.80;99.90
18823;DHT22;9540;51.550;7.980;2022-08-03T01:45:02;19.80;99.90
18823;DHT22;9540;51.550;7.980;2022-08-03T01:47:30;19.80;99.90
18823;DHT22;9540;51.550;7.980;2022-08-03T01:49:59;19.70;99.90
18823;DHT22;9540;51.550;7.980;2022-08-03T01:52:28;19.70;99.90
18823;DHT22;9540;51.550;7.980;2022-08-03T01:54:56;19.70;99.90
18823;DHT22;9540;51.550;7.980;2022-08-03T01:57:24;19.70;99.90
18823;DHT22;9540;51.550;7.980;2022-08-03T01:59:55;19.70;99.90
18823;DHT22;9540;51.550;7.980;2022-08-03T02:02:25;19.70;99.90
18823;DHT22;9540;51.550;7.980;2022-08-03T02:04:55;19.70;99.90
18823;DHT22;9540;51.550;7.980;2022-08-03T02:07:23;19.70;99.90
18823;DHT22;9540;51.550;7.980;2022-08-03T02:09:51;19.70;99.90
18823;DHT22;9540;51.550;7.980;2022-08-03T02:12:20;19.70;99.90
18823;DHT22;9540;51.550;7.980;2022-08-03T02:14:48;19.70;99.90
18823;DHT22;9540;51.550;7.980;2022-08-03T02:17:15;19.60;99.90
18823;DHT22;9540;51.550;7.980;2022-08-03T02:19:45;19.60;99.90
18823;DHT22;9540;51.550;7.980;2022-08-03T02:22:13;19.60;99.90
18823;DHT22;9540;51.550;7.980;2022-08-03T02:24:41;19.60;99.90
18823;DHT22;9540;51.550;7.980;2022-08-03T02:27:15;19.60;99.90
18823;DHT22;9540;51.550;7.980;2022-08-03T02:29:47;19.50;99.90
18823;DHT22;9540;51.550;7.980;2022-08-03T02:32:17;19.50;99.90
18823;DHT22;9540;51.550;7.980;2022-08-03T02:34:50;19.50;99.90
18823;DHT22;9540;51.550;7.980;2022-08-03T02:37:18;19.50;99.90
18823;DHT22;9540;51.550;7.980;2022-08-03T02:39:46;19.50;99.90
18823;DHT22;9540;51.550;7.980;2022-08-03T02:42:14;19.50;99.90
18823;DHT22;9540;51.550;7.980;2022-08-03T02:44:44;19.40;99.90
18823;DHT22;9540;51.550;7.980;2022-08-03T02:47:14;19.40;99.90
18823;DHT22;9540;51.550;7.980;2022-08-03T02:49:47;19.50;99.90
18823;DHT22;9540;51.550;7.980;2022-08-03T02:52:16;19.40;99.90
18823;DHT22;9540;51.550;7.980;2022-08-03T02:54:45;19.40;99.90
18823;DHT22;9540;51.550;7.980;2022-08-03T02:57:14;19.40;99.90
18823;DHT22;9540;51.550;7.980;2022-08-03T02:59:42;19.40;99.90
18823;DHT22;9540;51.550;7.980;2022-08-03T03:02:10;19.40;99.90
18823;DHT22;9540;51.550;7.980;2022-08-03T03:04:38;19.40;99.90
18823;DHT22;9540;51.550;7.980;2022-08-03T03:07:07;19.40;99.90
18823;DHT22;9540;51.550;7.980;2022-08-03T03:09:34;19.40;99.90
18823;DHT22;9540;51.550;7.980;2022-08-03T03:12:02;19.40;99.90
18823;DHT22;9540;51.550;7.980;2022-08-03T03:14:30;19.40;99.90
18823;DHT22;9540;51.550;7.980;2022-08-03T03:16:58;19.30;99.90
18823;DHT22;9540;51.550;7.980;2022-08-03T03:19:25;19.30;99.90
18823;DHT22;9540;51.550;7.980;2022-08-03T03:21:54;19.30;99.90
18823;DHT22;9540;51.550;7.980;2022-08-03T03:24:23;19.30;99.90
18823;DHT22;9540;51.550;7.980;2022-08-03T03:26:51;19.20;99.90
18823;DHT22;9540;51.550;7.980;2022-08-03T03:29:18;19.30;99.90
18823;DHT22;9540;51.550;7.980;2022-08-03T03:31:45;19.30;99.90
18823;DHT22;9540;51.550;7.980;2022-08-03T03:34:12;19.20;99.90
18823;DHT22;9540;51.550;7.980;2022-08-03T03:36:40;19.20;99.90
18823;DHT22;9540;51.550;7.980;2022-08-03T03:39:07;19.20;99.90
18823;DHT22;9540;51.550;7.980;2022-08-03T03:41:36;19.20;99.90
18823;DHT22;9540;51.550;7.980;2022-08-03T03:44:04;19.20;99.90
18823;DHT22;9540;51.550;7.980;2022-08-03T03:46:32;19.20;99.90
18823;DHT22;9540;51.550;7.980;2022-08-03T03:48:58;19.20;99.90
18823;DHT22;9540;51.550;7.980;2022-08-03T03:51:25;19.20;99.90
18823;DHT22;9540;51.550;7.980;2022-08-03T03:53:57;19.20;99.90
18823;DHT22;9540;51.550;7.980;2022-08-03T03:56:24;19.20;99.90
18823;DHT22;9540;51.550;7.980;2022-08-03T03:58:53;19.20;99.90
18823;DHT22;9540;51.550;7.980;2022-08-03T04:01:21;19.20;99.90
18823;DHT22;9540;51.550;7.980;2022-08-03T04:03:47;19.20;99.90
18823;DHT22;9540;51.550;7.980;2022-08-03T04:06:15;19.20;99.90
18823;DHT22;9540;51.550;7.980;2022-08-03T04:09:00;19.20;99.90
18823;DHT22;9540;51.550;7.980;2022-08-03T04:11:48;19.20;99.90
18823;DHT22;9540;51.550;7.980;2022-08-03T04:14:18;19.20;99.90
18823;DHT22;9540;51.550;7.980;2022-08-03T04:16:49;19.20;99.90
18823;DHT22;9540;51.550;7.980;2022-08-03T04:19:21;19.20;99.90
18823;DHT22;9540;51.550;7.980;2022-08-03T04:21:52;19.30;99.90
18823;DHT22;9540;51.550;7.980;2022-08-03T04:24:21;19.30;99.90
18823;DHT22;9540;51.550;7.980;2022-08-03T04:26:50;19.30;99.90
18823;DHT22;9540;51.550;7.980;2022-08-03T04:29:18;19.30;99.90
18823;DHT22;9540;51.550;7.980;2022-08-03T04:31:47;19.40;99.90
18823;DHT22;9540;51.550;7.980;2022-08-03T04:34:15;19.40;99.90
18823;DHT22;9540;51.550;7.980;2022-08-03T04:36:47;19.40;99.90
18823;DHT22;9540;51.550;7.980;2022-08-03T04:39:18;19.40;99.90
18823;DHT22;9540;51.550;7.980;2022-08-03T04:41:51;19.50;99.90
18823;DHT22;9540;51.550;7.980;2022-08-03T04:44:21;19.50;99.90
18823;DHT22;9540;51.550;7.980;2022-08-03T04:46:49;19.60;99.90
18823;DHT22;9540;51.550;7.980;2022-08-03T04:49:17;19.60;99.90
18823;DHT22;9540;51.550;7.980;2022-08-03T04:51:45;19.60;99.90
18823;DHT22;9540;51.550;7.980;2022-08-03T04:54:13;19.60;99.90
18823;DHT22;9540;51.550;7.980;2022-08-03T04:56:41;19.70;99.90
18823;DHT22;9540;51.550;7.980;2022-08-03T04:59:08;19.70;99.90
18823;DHT22;9540;51.550;7.980;2022-08-03T05:01:38;19.80;99.90
18823;DHT22;9540;51.550;7.980;2022-08-03T05:04:05;19.80;99.90
18823;DHT22;9540;51.550;7.980;2022-08-03T05:06:32;19.90;99.90
18823;DHT22;9540;51.550;7.980;2022-08-03T05:08:59;19.90;99.90
18823;DHT22;9540;51.550;7.980;2022-08-03T05:11:26;19.90;99.90
18823;DHT22;9540;51.550;7.980;2022-08-03T05:13:53;20.00;99.90
18823;DHT22;9540;51.550;7.980;2022-08-03T05:16:20;20.00;99.90
18823;DHT22;9540;51.550;7.980;2022-08-03T05:18:48;20.10;99.90
18823;DHT22;9540;51.550;7.980;2022-08-03T05:21:15;20.20;99.90
18823;DHT22;9540;51.550;7.980;2022-08-03T05:23:42;20.30;99.90
18823;DHT22;9540;51.550;7.980;2022-08-03T05:26:10;20.30;99.90
18823;DHT22;9540;51.550;7.980;2022-08-03T05:28:37;20.40;99.90
18823;DHT22;9540;51.550;7.980;2022-08-03T05:31:04;20.40;99.90
18823;DHT22;9540;51.550;7.980;2022-08-03T05:33:31;20.50;99.90
18823;DHT22;9540;51.550;7.980;2022-08-03T05:35:59;20.50;99.90
18823;DHT22;9540;51.550;7.980;2022-08-03T05:38:26;20.60;99.90
18823;DHT22;9540;51.550;7.980;2022-08-03T05:40:53;20.70;99.90
18823;DHT22;9540;51.550;7.980;2022-08-03T05:43:20;20.80;99.90
18823;DHT22;9540;51.550;7.980;2022-08-03T05:45:47;20.90;99.90
18823;DHT22;9540;51.550;7.980;2022-08-03T05:48:14;21.00;99.90
18823;DHT22;9540;51.550;7.980;2022-08-03T05:50:41;21.10;99.90
18823;DHT22;9540;51.550;7.980;2022-08-03T05:53:10;21.20;99.90
18823;DHT22;9540;51.550;7.980;2022-08-03T05:55:37;21.30;99.90
18823;DHT22;9540;51.550;7.980;2022-08-03T05:58:03;21.50;99.90
18823;DHT22;9540;51.550;7.980;2022-08-03T06:00:31;21.50;99.90
18823;DHT22;9540;51.550;7.980;2022-08-03T06:02:57;21.60;99.90
18823;DHT22;9540;51.550;7.980;2022-08-03T06:05:24;21.70;99.90
18823;DHT22;9540;51.550;7.980;2022-08-03T06:07:53;21.80;99.90
18823;DHT22;9540;51.550;7.980;2022-08-03T06:10:21;21.90;99.90
18823;DHT22;9540;51.550;7.980;2022-08-03T06:12:48;21.90;99.90
18823;DHT22;9540;51.550;7.980;2022-08-03T06:15:17;22.00;99.90
18823;DHT22;9540;51.550;7.980;2022-08-03T06:17:45;22.20;99.90
18823;DHT22;9540;51.550;7.980;2022-08-03T06:20:14;22.30;99.90
18823;DHT22;9540;51.550;7.980;2022-08-03T06:22:41;22.40;99.90
18823;DHT22;9540;51.550;7.980;2022-08-03T06:25:08;22.50;99.90
18823;DHT22;9540;51.550;7.980;2022-08-03T06:27:37;22.60;99.90
18823;DHT22;9540;51.550;7.980;2022-08-03T06:30:06;22.70;99.90
18823;DHT22;9540;51.550;7.980;2022-08-03T06:32:35;22.90;99.90
18823;DHT22;9540;51.550;7.980;2022-08-03T06:35:03;23.00;99.90
18823;DHT22;9540;51.550;7.980;2022-08-03T06:37:30;23.10;99.90
18823;DHT22;9540;51.550;7.980;2022-08-03T06:39:57;23.10;99.90
18823;DHT22;9540;51.550;7.980;2022-08-03T06:42:24;23.20;99.90
18823;DHT22;9540;51.550;7.980;2022-08-03T06:44:52;23.40;99.90
18823;DHT22;9540;51.550;7.980;2022-08-03T06:47:19;23.50;99.90
18823;DHT22;9540;51.550;7.980;2022-08-03T06:49:46;23.70;99.90
18823;DHT22;9540;51.550;7.980;2022-08-03T06:52:13;23.80;99.90
18823;DHT22;9540;51.550;7.980;2022-08-03T06:54:40;23.90;99.90
18823;DHT22;9540;51.550;7.980;2022-08-03T06:57:07;24.10;99.90
18823;DHT22;9540;51.550;7.980;2022-08-03T06:59:36;24.20;99.90
18823;DHT22;9540;51.550;7.980;2022-08-03T07:02:04;24.40;99.90
18823;DHT22;9540;51.550;7.980;2022-08-03T07:04:31;24.50;99.90
18823;DHT22;9540;51.550;7.980;2022-08-03T07:06:58;24.60;99.90
18823;DHT22;9540;51.550;7.980;2022-08-03T07:09:25;24.70;99.90
18823;DHT22;9540;51.550;7.980;2022-08-03T07:11:52;24.80;99.90
18823;DHT22;9540;51.550;7.980;2022-08-03T07:14:20;24.90;99.90
18823;DHT22;9540;51.550;7.980;2022-08-03T07:16:47;24.90;99.90
18823;DHT22;9540;51.550;7.980;2022-08-03T07:19:15;25.00;99.90
18823;DHT22;9540;51.550;7.980;2022-08-03T07:21:42;25.00;99.90
18823;DHT22;9540;51.550;7.980;2022-08-03T07:24:10;25.10;99.90
18823;DHT22;9540;51.550;7.980;2022-08-03T07:26:37;25.10;99.90
18823;DHT22;9540;51.550;7.980;2022-08-03T07:29:04;25.20;99.90
18823;DHT22;9540;51.550;7.980;2022-08-03T07:31:31;25.30;99.90
18823;DHT22;9540;51.550;7.980;2022-08-03T07:33:58;25.40;99.90
18823;DHT22;9540;51.550;7.980;2022-08-03T07:36:26;25.60;99.90
18823;DHT22;9540;51.550;7.980;2022-08-03T07:38:53;25.60;99.90
18823;DHT22;9540;51.550;7.980;2022-08-03T07:41:22;25.80;99.90
18823;DHT22;9540;51.550;7.980;2022-08-03T07:43:49;25.90;99.90
18823;DHT22;9540;51.550;7.980;2022-08-03T07:46:16;26.00;99.90
18823;DHT22;9540;51.550;7.980;2022-08-03T07:48:43;26.20;99.90
18823;DHT22;9540;51.550;7.980;2022-08-03T07:51:10;26.30;99.90
18823;DHT22;9540;51.550;7.980;2022-08-03T07:53:38;26.30;99.90
18823;DHT22;9540;51.550;7.980;2022-08-03T07:56:06;26.30;99.90
18823;DHT22;9540;51.550;7.980;2022-08-03T07:58:34;26.50;99.90
18823;DHT22;9540;51.550;7.980;2022-08-03T08:01:01;26.70;99.90
18823;DHT22;9540;51.550;7.980;2022-08-03T08:03:28;26.80;99.90
18823;DHT22;9540;51.550;7.980;2022-08-03T08:05:55;26.90;99.90
18823;DHT22;9540;51.550;7.980;2022-08-03T08:08:22;27.00;99.90
18823;DHT22;9540;51.550;7.980;2022-08-03T08:10:51;27.10;99.90
18823;DHT22;9540;51.550;7.980;2022-08-03T08:13:18;27.20;99.90
18823;DHT22;9540;51.550;7.980;2022-08-03T08:15:45;27.30;99.90
18823;DHT22;9540;51.550;7.980;2022-08-03T08:18:12;27.40;99.90
18823;DHT22;9540;51.550;7.980;2022-08-03T08:20:39;27.40;99.90
18823;DHT22;9540;51.550;7.980;2022-08-03T08:23:07;27.50;99.90
18823;DHT22;9540;51.550;7.980;2022-08-03T08:25:34;27.50;99.90
18823;DHT22;9540;51.550;7.980;2022-08-03T08:28:03;27.50;99.90
18823;DHT22;9540;51.550;7.980;2022-08-03T08:30:31;27.50;99.90
18823;DHT22;9540;51.550;7.980;2022-08-03T08:32:59;27.60;99.90
18823;DHT22;9540;51.550;7.980;2022-08-03T08:35:26;27.70;99.90
18823;DHT22;9540;51.550;7.980;2022-08-03T08:37:52;27.90;99.90
18823;DHT22;9540;51.550;7.980;2022-08-03T08:40:20;28.00;99.90
18823;DHT22;9540;51.550;7.980;2022-08-03T08:42:48;28.20;99.90
18823;DHT22;9540;51.550;7.980;2022-08-03T08:45:17;28.30;99.90
18823;DHT22;9540;51.550;7.980;2022-08-03T08:47:45;28.20;99.90
18823;DHT22;9540;51.550;7.980;2022-08-03T08:50:12;28.20;99.90
18823;DHT22;9540;51.550;7.980;2022-08-03T08:52:40;28.10;99.90
18823;DHT22;9540;51.550;7.980;2022-08-03T08:55:10;28.00;99.90
18823;DHT22;9540;51.550;7.980;2022-08-03T08:57:43;28.00;99.90
18823;DHT22;9540;51.550;7.980;2022-08-03T09:00:12;28.20;99.90
18823;DHT22;9540;51.550;7.980;2022-08-03T09:02:41;28.20;99.90
18823;DHT22;9540;51.550;7.980;2022-08-03T09:05:09;28.20;99.90
18823;DHT22;9540;51.550;7.980;2022-08-03T09:07:37;28.20;99.90
18823;DHT22;9540;51.550;7.980;2022-08-03T09:10:06;28.00;99.90
18823;DHT22;9540;51.550;7.980;2022-08-03T09:12:37;28.00;99.90
18823;DHT22;9540;51.550;7.980;2022-08-03T09:15:16;28.00;99.90
18823;DHT22;9540;51.550;7.980;2022-08-03T09:17:45;28.10;99.90
18823;DHT22;9540;51.550;7.980;2022-08-03T09:20:12;28.20;99.90
18823;DHT22;9540;51.550;7.980;2022-08-03T09:22:51;28.30;99.90
18823;DHT22;9540;51.550;7.980;2022-08-03T09:25:21;28.30;99.90
18823;DHT22;9540;51.550;7.980;2022-08-03T09:27:51;28.30;99.90
18823;DHT22;9540;51.550;7.980;2022-08-03T09:30:18;28.40;99.90
18823;DHT22;9540;51.550;7.980;2022-08-03T09:32:47;28.40;99.90
18823;DHT22;9540;51.550;7.980;2022-08-03T09:35:14;28.30;98.90
18823;DHT22;9540;51.550;7.980;2022-08-03T09:37:41;28.30;99.90
18823;DHT22;9540;51.550;7.980;2022-08-03T09:40:08;28.30;99.90
18823;DHT22;9540;51.550;7.980;2022-08-03T09:42:35;28.20;99.90
18823;DHT22;9540;51.550;7.980;2022-08-03T09:45:04;28.20;99.90
18823;DHT22;9540;51.550;7.980;2022-08-03T09:47:32;28.00;99.90
18823;DHT22;9540;51.550;7.980;2022-08-03T09:50:04;28.00;99.90
18823;DHT22;9540;51.550;7.980;2022-08-03T09:52:34;28.10;99.90
18823;DHT22;9540;51.550;7.980;2022-08-03T09:55:07;28.30;99.90
18823;DHT22;9540;51.550;7.980;2022-08-03T09:57:34;28.40;99.90
18823;DHT22;9540;51.550;7.980;2022-08-03T10:00:07;28.50;99.60
18823;DHT22;9540;51.550;7.980;2022-08-03T10:02:37;28.50;99.10
18823;DHT22;9540;51.550;7.980;2022-08-03T10:05:07;28.50;99.30
18823;DHT22;9540;51.550;7.980;2022-08-03T10:07:41;28.40;98.80
18823;DHT22;9540;51.550;7.980;2022-08-03T10:10:09;28.50;99.20
18823;DHT22;9540;51.550;7.980;2022-08-03T10:12:37;28.60;99.90
18823;DHT22;9540;51.550;7.980;2022-08-03T10:15:05;28.70;97.20
18823;DHT22;9540;51.550;7.980;2022-08-03T10:17:32;28.80;97.60
18823;DHT22;9540;51.550;7.980;2022-08-03T10:19:59;29.10;98.90
18823;DHT22;9540;51.550;7.980;2022-08-03T10:22:32;29.20;97.60
18823;DHT22;9540;51.550;7.980;2022-08-03T10:25:03;29.30;97.50
18823;DHT22;9540;51.550;7.980;2022-08-03T10:27:33;29.60;97.30
18823;DHT22;9540;51.550;7.980;2022-08-03T10:30:02;30.00;95.30
18823;DHT22;9540;51.550;7.980;2022-08-03T10:32:34;30.40;95.30
18823;DHT22;9540;51.550;7.980;2022-08-03T10:35:04;30.40;93.30
18823;DHT22;9540;51.550;7.980;2022-08-03T10:37:39;30.30;93.10
18823;DHT22;9540;51.550;7.980;2022-08-03T10:40:08;30.30;93.50
18823;DHT22;9540;51.550;7.980;2022-08-03T10:42:36;30.10;91.80
18823;DHT22;9540;51.550;7.980;2022-08-03T10:45:05;30.10;92.70
18823;DHT22;9540;51.550;7.980;2022-08-03T10:47:33;29.90;91.70
18823;DHT22;9540;51.550;7.980;2022-08-03T10:50:02;29.90;92.40
18823;DHT22;9540;51.550;7.980;2022-08-03T10:52:29;30.00;91.80
18823;DHT22;9540;51.550;7.980;2022-08-03T10:54:57;30.10;92.10
18823;DHT22;9540;51.550;7.980;2022-08-03T10:57:47;30.20;92.30
18823;DHT22;9540;51.550;7.980;2022-08-03T11:00:14;30.20;91.30
18823;DHT22;9540;51.550;7.980;2022-08-03T11:03:14;30.10;90.30
18823;DHT22;9540;51.550;7.980;2022-08-03T11:05:43;30.20;91.30
18823;DHT22;9540;51.550;7.980;2022-08-03T11:08:25;30.30;90.80
18823;DHT22;9540;51.550;7.980;2022-08-03T11:10:56;30.10;90.20
18823;DHT22;9540;51.550;7.980;2022-08-03T11:13:25;30.30;91.20
18823;DHT22;9540;51.550;7.980;2022-08-03T11:15:56;30.40;90.10
18823;DHT22;9540;51.550;7.980;2022-08-03T11:18:23;30.30;88.70
18823;DHT22;9540;51.550;7.980;2022-08-03T11:20:52;30.40;90.30
18823;DHT22;9540;51.550;7.980;2022-08-03T11:23:39;30.40;89.60
18823;DHT22;9540;51.550;7.980;2022-08-03T11:26:09;30.40;89.80
18823;DHT22;9540;51.550;7.980;2022-08-03T11:28:37;30.40;86.40
18823;DHT22;9540;51.550;7.980;2022-08-03T11:31:45;30.40;86.30
18823;DHT22;9540;51.550;7.980;2022-08-03T11:34:14;30.40;87.20
18823;DHT22;9540;51.550;7.980;2022-08-03T11:37:19;30.40;86.70
18823;DHT22;9540;51.550;7.980;2022-08-03T11:39:49;30.30;89.10
18823;DHT22;9540;51.550;7.980;2022-08-03T11:42:41;30.30;89.80
18823;DHT22;9540;51.550;7.980;2022-08-03T11:45:13;30.30;87.00
18823;DHT22;9540;51.550;7.980;2022-08-03T11:47:40;30.40;87.00
18823;DHT22;9540;51.550;7.980;2022-08-03T11:50:09;30.60;88.70
18823;DHT22;9540;51.550;7.980;2022-08-03T11:52:40;30.70;86.70
18823;DHT22;9540;51.550;7.980;2022-08-03T11:55:16;30.70;87.60
18823;DHT22;9540;51.550;7.980;2022-08-03T11:57:46;30.70;88.50
18823;DHT22;9540;51.550;7.980;2022-08-03T12:00:29;30.40;84.50
18823;DHT22;9540;51.550;7.980;2022-08-03T12:03:02;30.60;86.00
18823;DHT22;9540;51.550;7.980;2022-08-03T12:05:40;30.90;87.00
18823;DHT22;9540;51.550;7.980;2022-08-03T12:08:08;31.00;86.80
18823;DHT22;9540;51.550;7.980;2022-08-03T12:10:36;31.20;84.60
18823;DHT22;9540;51.550;7.980;2022-08-03T12:13:06;31.10;84.50
18823;DHT22;9540;51.550;7.980;2022-08-03T12:15:35;31.20;85.30
18823;DHT22;9540;51.550;7.980;2022-08-03T12:18:12;31.40;86.60
18823;DHT22;9540;51.550;7.980;2022-08-03T12:20:39;31.40;84.80
18823;DHT22;9540;51.550;7.980;2022-08-03T12:23:07;31.40;83.60
18823;DHT22;9540;51.550;7.980;2022-08-03T12:25:35;31.40;82.00
18823;DHT22;9540;51.550;7.980;2022-08-03T12:28:09;31.40;84.80
18823;DHT22;9540;51.550;7.980;2022-08-03T12:30:38;31.40;82.70
18823;DHT22;9540;51.550;7.980;2022-08-03T12:33:20;31.30;83.90
18823;DHT22;9540;51.550;7.980;2022-08-03T12:35:49;31.10;83.10
18823;DHT22;9540;51.550;7.980;2022-08-03T12:38:21;31.30;82.90
18823;DHT22;9540;51.550;7.980;2022-08-03T12:40:55;31.10;85.30
18823;DHT22;9540;51.550;7.980;2022-08-03T12:43:25;31.00;84.20
18823;DHT22;9540;51.550;7.980;2022-08-03T12:46:09;31.00;85.00
18823;DHT22;9540;51.550;7.980;2022-08-03T12:48:57;31.10;84.80
18823;DHT22;9540;51.550;7.980;2022-08-03T12:51:24;31.20;81.30
18823;DHT22;9540;51.550;7.980;2022-08-03T12:53:56;31.20;82.30
18823;DHT22;9540;51.550;7.980;2022-08-03T12:56:24;30.90;80.20
18823;DHT22;9540;51.550;7.980;2022-08-03T12:58:53;30.90;83.20
18823;DHT22;9540;51.550;7.980;2022-08-03T13:01:20;30.70;83.60
18823;DHT22;9540;51.550;7.980;2022-08-03T13:03:50;30.70;81.80
18823;DHT22;9540;51.550;7.980;2022-08-03T13:06:21;30.90;82.60
18823;DHT22;9540;51.550;7.980;2022-08-03T13:08:48;30.90;83.30
18823;DHT22;9540;51.550;7.980;2022-08-03T13:11:23;30.90;84.90
18823;DHT22;9540;51.550;7.980;2022-08-03T13:13:53;31.10;83.80
18823;DHT22;9540;51.550;7.980;2022-08-03T13:16:20;31.00;82.60
18823;DHT22;9540;51.550;7.980;2022-08-03T13:18:49;30.70;82.40
18823;DHT22;9540;51.550;7.980;2022-08-03T13:21:18;30.50;81.60
18823;DHT22;9540;51.550;7.980;2022-08-03T13:23:45;30.50;83.80
18823;DHT22;9540;51.550;7.980;2022-08-03T13:26:13;30.50;85.10
18823;DHT22;9540;51.550;7.980;2022-08-03T13:28:40;30.60;82.70
18823;DHT22;9540;51.550;7.980;2022-08-03T13:31:08;30.50;82.30
18823;DHT22;9540;51.550;7.980;2022-08-03T13:33:35;30.50;83.30
18823;DHT22;9540;51.550;7.980;2022-08-03T13:36:04;30.30;84.80
18823;DHT22;9540;51.550;7.980;2022-08-03T13:38:31;30.20;83.00
18823;DHT22;9540;51.550;7.980;2022-08-03T13:41:00;30.20;82.50
18823;DHT22;9540;51.550;7.980;2022-08-03T13:43:27;30.30;83.60
18823;DHT22;9540;51.550;7.980;2022-08-03T13:45:54;30.30;84.70
18823;DHT22;9540;51.550;7.980;2022-08-03T13:48:23;30.30;84.70
18823;DHT22;9540;51.550;7.980;2022-08-03T13:50:50;30.40;84.10
18823;DHT22;9540;51.550;7.980;2022-08-03T13:53:17;30.40;85.60
18823;DHT22;9540;51.550;7.980;2022-08-03T13:55:44;30.40;86.10
18823;DHT22;9540;51.550;7.980;2022-08-03T13:58:10;30.50;83.70
18823;DHT22;9540;51.550;7.980;2022-08-03T14:00:38;30.70;82.90
18823;DHT22;9540;51.550;7.980;2022-08-03T14:03:05;30.90;84.10
18823;DHT22;9540;51.550;7.980;2022-08-03T14:05:34;31.00;82.50
18823;DHT22;9540;51.550;7.980;2022-08-03T14:08:03;31.10;82.80
18823;DHT22;9540;51.550;7.980;2022-08-03T14:10:34;31.10;83.50
18823;DHT22;9540;51.550;7.980;2022-08-03T14:13:02;31.20;82.40
18823;DHT22;9540;51.550;7.980;2022-08-03T14:15:29;31.10;82.00
18823;DHT22;9540;51.550;7.980;2022-08-03T14:17:56;31.00;81.40
18823;DHT22;9540;51.550;7.980;2022-08-03T14:20:23;31.00;82.50
18823;DHT22;9540;51.550;7.980;2022-08-03T14:22:51;31.00;82.30
18823;DHT22;9540;51.550;7.980;2022-08-03T14:25:18;31.20;80.90
18823;DHT22;9540;51.550;7.980;2022-08-03T14:27:45;31.30;79.90
18823;DHT22;9540;51.550;7.980;2022-08-03T14:30:13;31.40;78.70
18823;DHT22;9540;51.550;7.980;2022-08-03T14:32:40;31.40;80.10
18823;DHT22;9540;51.550;7.980;2022-08-03T14:35:07;31.60;78.40
18823;DHT22;9540;51.550;7.980;2022-08-03T14:37:35;31.60;78.70
18823;DHT22;9540;51.550;7.980;2022-08-03T14:40:04;31.60;78.40
18823;DHT22;9540;51.550;7.980;2022-08-03T14:42:32;31.60;78.30
18823;DHT22;9540;51.550;7.980;2022-08-03T14:44:59;31.60;77.40
18823;DHT22;9540;51.550;7.980;2022-08-03T14:47:26;31.60;76.60
18823;DHT22;9540;51.550;7.980;2022-08-03T14:49:54;31.50;76.70
18823;DHT22;9540;51.550;7.980;2022-08-03T14:52:21;31.60;77.20
18823;DHT22;9540;51.550;7.980;2022-08-03T14:54:48;31.60;78.70
18823;DHT22;9540;51.550;7.980;2022-08-03T14:57:16;31.70;77.50
18823;DHT22;9540;51.550;7.980;2022-08-03T14:59:43;31.90;77.10
18823;DHT22;9540;51.550;7.980;2022-08-03T15:02:11;32.00;77.90
18823;DHT22;9540;51.550;7.980;2022-08-03T15:04:38;32.00;76.80
18823;DHT22;9540;51.550;7.980;2022-08-03T15:07:05;32.00;76.50
18823;DHT22;9540;51.550;7.980;2022-08-03T15:09:33;32.00;76.50
18823;DHT22;9540;51.550;7.980;2022-08-03T15:12:00;31.90;75.20
18823;DHT22;9540;51.550;7.980;2022-08-03T15:14:28;31.90;73.50
18823;DHT22;9540;51.550;7.980;2022-08-03T15:16:55;32.00;74.70
18823;DHT22;9540;51.550;7.980;2022-08-03T15:19:22;32.00;75.50
18823;DHT22;9540;51.550;7.980;2022-08-03T15:21:49;32.10;75.30
18823;DHT22;9540;51.550;7.980;2022-08-03T15:24:16;32.10;74.90
18823;DHT22;9540;51.550;7.980;2022-08-03T15:26:43;32.00;74.70
18823;DHT22;9540;51.550;7.980;2022-08-03T15:29:10;32.00;76.10
18823;DHT22;9540;51.550;7.980;2022-08-03T15:31:39;32.00;73.60
18823;DHT22;9540;51.550;7.980;2022-08-03T15:34:06;32.00;75.80
18823;DHT22;9540;51.550;7.980;2022-08-03T15:36:33;31.90;75.00
18823;DHT22;9540;51.550;7.980;2022-08-03T15:39:00;31.90;74.10
18823;DHT22;9540;51.550;7.980;2022-08-03T15:41:27;32.00;75.50
18823;DHT22;9540;51.550;7.980;2022-08-03T15:43:54;32.00;74.70
18823;DHT22;9540;51.550;7.980;2022-08-03T15:46:21;32.00;76.50
18823;DHT22;9540;51.550;7.980;2022-08-03T15:48:50;31.90;76.40
18823;DHT22;9540;51.550;7.980;2022-08-03T15:51:16;31.90;75.80
18823;DHT22;9540;51.550;7.980;2022-08-03T15:53:43;31.90;76.50
18823;DHT22;9540;51.550;7.980;2022-08-03T15:56:10;32.00;76.40
18823;DHT22;9540;51.550;7.980;2022-08-03T15:58:37;32.20;74.80